Time;durP1;ratioP1;P1;durP2;ratioP2;P2;SDS_P1;SDS_P2;PMS_P1;PMS_P2;Temp;Humidity;BMP_temperature;BMP_pressure;BME280_temperature;BME280_humidity;BME280_pressure;Samples;Min_cycle;Max_cycle;Signal;HPM_P1;HPM_P2
2022/10/07 00:03:22;;;;;;;;;;;;;;;5.66;93.29;100554.72;8266808;28;20357;-74
2022/10/07 00:07:23;;;;;;;;;;;;;;;5.63;92.84;100552.03;8283662;28;19925;-75
2022/10/07 00:11:26;;;;;;;;;;;;;;;5.60;93.04;100553.66;8290667;28;19940;-75
2022/10/07 00:15:27;;;;;;;;;;;;;;;5.54;93.50;100548.25;8291601;28;19925;-74
2022/10/07 00:19:28;;;;;;;;;;;;;;;5.48;92.96;100543.78;8301557;28;19932;-74
2022/10/07 00:23:30;;;;;;;;;;;;;;;5.43;92.91;100538.47;8282211;28;19936;-74
2022/10/07 00:27:31;;;;;;;;;;;;;;;5.34;92.81;100527.84;8277703;28;19929;-75
2022/10/07 00:31:34;;;;;;;;;;;;;;;5.31;92.88;100524.28;8276199;28;19925;-75
2022/10/07 00:35:35;;;;;;;;;;;;;;;5.29;92.92;100525.94;8275047;28;19937;-75
2022/10/07 00:39:36;;;;;;;;;;;;;;;5.25;92.62;100524.09;8281662;28;19948;-75
2022/10/07 00:43:38;;;;;;;;;;;;;;;5.19;92.46;100527.31;8262235;28;19925;-73
2022/10/07 00:47:40;;;;;;;;;;;;;;;5.16;92.58;100522.94;8275737;28;19929;-75
2022/10/07 00:51:42;;;;;;;;;;;;;;;5.10;92.72;100516.69;8261945;28;20460;-73
2022/10/07 00:55:43;;;;;;;;;;;;;;;5.05;92.95;100510.53;8299926;28;19925;-74
2022/10/07 00:59:45;;;;;;;;;;;;;;;5.01;92.87;100504.38;8298053;28;19937;-75
2022/10/07 01:03:47;;;;;;;;;;;;;;;4.99;93.32;100503.44;8286737;28;19929;-74
2022/10/07 01:07:49;;;;;;;;;;;;;;;4.93;92.93;100492.94;8296389;28;19982;-74
2022/10/07 01:12:06;;;;;;;;;;;;;;;4.88;93.05;100494.47;8289382;28;19926;-74
2022/10/07 01:16:13;;;;;;;;;;;;;;;4.85;93.26;100489.22;8273859;28;19925;-74
2022/10/07 01:20:24;;;;;;;;;;;;;;;4.82;93.36;100489.09;8291207;28;19929;-75
2022/10/07 01:24:34;;;;;;;;;;;;;;;4.74;93.16;100480.22;8276651;28;19940;-74
2022/10/07 01:28:39;;;;;;;;;;;;;;;4.71;93.05;100469.84;8286193;28;19924;-74
2022/10/07 01:32:52;;;;;;;;;;;;;;;4.66;93.23;100464.50;8278214;28;19933;-74
2022/10/07 01:36:54;;;;;;;;;;;;;;;4.61;92.80;100468.59;8291619;28;19929;-74
2022/10/07 01:41:03;;;;;;;;;;;;;;;4.54;92.75;100469.22;8284111;28;20354;-74
2022/10/07 01:45:07;;;;;;;;;;;;;;;4.53;93.23;100455.47;8270081;28;19928;-75
2022/10/07 01:49:09;;;;;;;;;;;;;;;4.55;93.52;100452.97;8268003;28;19950;-74
2022/10/07 01:53:11;;;;;;;;;;;;;;;4.49;93.24;100445.03;8274000;28;19941;-74
2022/10/07 01:57:22;;;;;;;;;;;;;;;4.47;93.23;100442.38;8293793;28;19935;-75
2022/10/07 02:01:42;;;;;;;;;;;;;;;4.43;93.35;100435.38;8289964;28;19926;-75
2022/10/07 02:05:44;;;;;;;;;;;;;;;4.37;93.00;100436.84;8281078;28;19965;-74
2022/10/07 02:09:50;;;;;;;;;;;;;;;4.35;93.14;100434.22;8285226;28;19936;-75
2022/10/07 02:14:00;;;;;;;;;;;;;;;4.32;92.75;100425.53;8301633;28;19933;-75
2022/10/07 02:18:05;;;;;;;;;;;;;;;4.28;93.07;100421.94;8289652;28;20470;-75
2022/10/07 02:22:07;;;;;;;;;;;;;;;4.29;93.20;100418.56;8301420;28;19989;-74
2022/10/07 02:26:12;;;;;;;;;;;;;;;4.20;92.99;100416.53;8278020;28;19928;-74
2022/10/07 02:30:15;;;;;;;;;;;;;;;4.13;92.95;100404.28;8276337;28;19995;-75
2022/10/07 02:34:18;;;;;;;;;;;;;;;4.07;92.77;100410.88;8268118;28;19983;-74
2022/10/07 02:38:21;;;;;;;;;;;;;;;4.06;92.91;100406.53;8278686;28;19925;-75
2022/10/07 02:42:41;;;;;;;;;;;;;;;4.02;92.99;100399.53;8293615;28;19925;-75
2022/10/07 02:46:50;;;;;;;;;;;;;;;4.03;92.95;100396.16;8295989;28;19976;-74
2022/10/07 02:50:54;;;;;;;;;;;;;;;3.99;93.07;100395.16;8294394;28;19929;-74
2022/10/07 02:55:06;;;;;;;;;;;;;;;3.96;93.00;100401.91;8289971;28;19931;-75
2022/10/07 02:59:09;;;;;;;;;;;;;;;3.91;92.85;100387.16;8279307;28;19928;-74
2022/10/07 03:03:11;;;;;;;;;;;;;;;3.87;92.63;100390.44;8256252;28;19928;-74
2022/10/07 03:07:12;;;;;;;;;;;;;;;3.86;93.08;100383.53;8292674;28;20044;-74
2022/10/07 03:11:13;;;;;;;;;;;;;;;3.80;93.19;100374.75;8285068;28;19925;-74
2022/10/07 03:15:15;;;;;;;;;;;;;;;3.82;93.75;100384.25;8271879;28;19924;-74
2022/10/07 03:19:16;;;;;;;;;;;;;;;3.84;93.97;100371.47;8286575;28;19960;-75
2022/10/07 03:23:18;;;;;;;;;;;;;;;3.83;93.93;100375.72;8289737;28;20003;-74
2022/10/07 03:27:19;;;;;;;;;;;;;;;3.79;93.66;100375.56;8296026;28;19991;-75
2022/10/07 03:31:21;;;;;;;;;;;;;;;3.76;93.73;100378.84;8291920;28;19924;-74
2022/10/07 03:35:22;;;;;;;;;;;;;;;3.69;93.52;100374.31;8264260;28;19937;-74
2022/10/07 03:39:24;;;;;;;;;;;;;;;3.66;93.44;100369.06;8270112;28;20590;-74
2022/10/07 03:43:25;;;;;;;;;;;;;;;3.61;93.45;100370.59;8254192;28;19976;-74
2022/10/07 03:47:27;;;;;;;;;;;;;;;3.60;93.43;100371.41;8264923;28;20310;-74
2022/10/07 03:51:28;;;;;;;;;;;;;;;3.60;93.75;100356.88;8271476;28;20309;-74
2022/10/07 03:55:29;;;;;;;;;;;;;;;3.58;93.69;100352.47;8254424;28;19980;-74
2022/10/07 03:59:31;;;;;;;;;;;;;;;3.54;93.81;100359.19;8263984;28;19925;-74
2022/10/07 04:03:33;;;;;;;;;;;;;;;3.45;93.38;100352.81;8258791;28;19926;-74
2022/10/07 04:07:34;;;;;;;;;;;;;;;3.45;93.58;100357.97;8261911;28;20492;-74
2022/10/07 04:11:39;;;;;;;;;;;;;;;3.49;94.25;100352.13;8263783;28;19952;-75
2022/10/07 04:15:40;;;;;;;;;;;;;;;3.52;94.59;100342.84;8262894;28;20709;-74
2022/10/07 04:19:41;;;;;;;;;;;;;;;3.57;94.87;100341.31;8238385;28;19934;-74
2022/10/07 04:23:43;;;;;;;;;;;;;;;3.58;95.00;100339.63;8273875;28;19933;-74
2022/10/07 04:27:44;;;;;;;;;;;;;;;3.56;95.17;100337.00;8237269;28;19926;-75
2022/10/07 04:31:58;;;;;;;;;;;;;;;3.57;94.88;100337.88;8263558;28;20008;-74
2022/10/07 04:36:04;;;;;;;;;;;;;;;3.55;94.52;100340.38;8289833;28;20325;-74
2022/10/07 04:40:06;;;;;;;;;;;;;;;3.55;94.66;100324.97;8277895;28;19925;-74
2022/10/07 04:44:07;;;;;;;;;;;;;;;3.53;94.65;100333.44;8275764;28;19991;-74
2022/10/07 04:48:08;;;;;;;;;;;;;;;3.55;94.77;100332.69;8296652;28;19925;-74
2022/10/07 04:52:10;;;;;;;;;;;;;;;3.52;94.47;100329.13;8277521;28;19921;-75
2022/10/07 04:56:11;;;;;;;;;;;;;;;3.47;94.18;100321.25;8275322;28;19925;-74
2022/10/07 05:00:13;;;;;;;;;;;;;;;3.47;94.34;100325.50;8274260;28;19932;-74
2022/10/07 05:04:15;;;;;;;;;;;;;;;3.47;94.47;100322.94;8274699;28;19926;-74
2022/10/07 05:08:17;;;;;;;;;;;;;;;3.42;94.40;100320.22;8295285;28;19929;-74
2022/10/07 05:12:19;;;;;;;;;;;;;;;3.41;94.61;100308.19;8280092;28;19925;-74
2022/10/07 05:16:21;;;;;;;;;;;;;;;3.46;94.97;100305.78;8295069;28;20491;-74
2022/10/07 05:20:22;;;;;;;;;;;;;;;3.49;95.03;100305.91;8295125;28;19925;-74
2022/10/07 05:24:25;;;;;;;;;;;;;;;3.55;95.55;100290.72;8254874;28;19929;-76
2022/10/07 05:28:26;;;;;;;;;;;;;;;3.56;95.66;100290.78;8251610;28;19929;-76
2022/10/07 05:32:28;;;;;;;;;;;;;;;3.59;95.95;100290.03;8287420;28;20527;-75
2022/10/07 05:36:30;;;;;;;;;;;;;;;3.59;95.48;100293.50;8270434;28;19925;-74
2022/10/07 05:40:31;;;;;;;;;;;;;;;3.57;95.51;100297.66;8268138;28;19937;-75
2022/10/07 05:44:32;;;;;;;;;;;;;;;3.55;95.52;100296.75;8269586;28;19925;-75
2022/10/07 05:48:34;;;;;;;;;;;;;;;3.55;95.69;100307.00;8292720;28;20281;-75
2022/10/07 05:52:41;;;;;;;;;;;;;;;3.56;96.20;100301.06;8288242;28;20449;-75
2022/10/07 05:56:43;;;;;;;;;;;;;;;3.57;96.15;100294.22;8275720;28;19930;-75
2022/10/07 06:00:48;;;;;;;;;;;;;;;3.60;96.08;100286.66;8287928;28;19922;-75
2022/10/07 06:04:50;;;;;;;;;;;;;;;3.53;95.70;100287.22;8289234;28;19936;-75
2022/10/07 06:08:52;;;;;;;;;;;;;;;3.53;95.92;100285.53;8294227;28;19928;-75
2022/10/07 06:13:08;;;;;;;;;;;;;;;3.59;96.15;100282.31;8284826;28;20355;-76
2022/10/07 06:17:09;;;;;;;;;;;;;;;3.59;96.06;100285.78;8269758;28;19925;-76
2022/10/07 06:21:11;;;;;;;;;;;;;;;3.60;95.65;100286.66;8268086;28;19929;-76
2022/10/07 06:25:12;;;;;;;;;;;;;;;3.60;95.68;100289.22;8276900;28;19925;-74
2022/10/07 06:29:14;;;;;;;;;;;;;;;3.64;95.70;100286.84;8272970;28;19925;-74
2022/10/07 06:33:16;;;;;;;;;;;;;;;3.72;95.91;100276.81;8271116;28;19936;-75
2022/10/07 06:37:19;;;;;;;;;;;;;;;3.82;95.84;100273.78;8273841;28;19926;-75
2022/10/07 06:41:21;;;;;;;;;;;;;;;3.88;95.47;100281.72;8294783;28;19952;-74
2022/10/07 06:45:22;;;;;;;;;;;;;;;3.90;95.59;100292.91;8262962;28;19933;-75
2022/10/07 06:49:24;;;;;;;;;;;;;;;3.97;95.29;100291.47;8292690;28;19959;-75
2022/10/07 06:53:25;;;;;;;;;;;;;;;4.00;95.07;100289.00;8292079;28;20390;-75
2022/10/07 06:57:26;;;;;;;;;;;;;;;4.09;94.59;100291.00;8275231;28;20588;-74
2022/10/07 07:01:46;;;;;;;;;;;;;;;4.37;94.76;100282.59;8275881;28;19935;-74
2022/10/07 07:05:47;;;;;;;;;;;;;;;4.69;94.66;100289.72;8281924;28;19937;-77
2022/10/07 07:09:53;;;;;;;;;;;;;;;5.06;94.47;100288.34;8286636;28;19932;-77
2022/10/07 07:13:55;;;;;;;;;;;;;;;5.39;92.60;100288.53;8297327;28;19936;-76
2022/10/07 07:17:57;;;;;;;;;;;;;;;5.68;92.02;100287.69;8291995;28;19929;-77
2022/10/07 07:21:58;;;;;;;;;;;;;;;6.01;91.00;100286.94;8290088;28;20682;-75
2022/10/07 07:26:00;;;;;;;;;;;;;;;6.34;90.04;100284.44;8281620;28;19925;-76
2022/10/07 07:30:01;;;;;;;;;;;;;;;6.62;88.19;100276.56;8299595;28;19936;-74
2022/10/07 07:34:06;;;;;;;;;;;;;;;7.06;87.46;100281.09;8292754;28;19933;-77
2022/10/07 07:38:07;;;;;;;;;;;;;;;7.40;85.94;100280.16;8298189;28;19929;-77
2022/10/07 07:42:09;;;;;;;;;;;;;;;7.66;85.55;100283.31;8277661;28;20251;-75
2022/10/07 07:46:11;;;;;;;;;;;;;;;7.96;84.72;100276.22;8275022;28;19983;-75
2022/10/07 07:50:12;;;;;;;;;;;;;;;8.35;83.31;100276.13;8302070;28;19975;-76
2022/10/07 07:54:14;;;;;;;;;;;;;;;8.78;81.78;100262.22;8279308;28;19925;-75
2022/10/07 07:58:16;;;;;;;;;;;;;;;9.20;80.86;100261.19;8265627;28;19944;-77
2022/10/07 08:02:19;;;;;;;;;;;;;;;9.60;80.57;100266.94;8289420;28;19966;-75
2022/10/07 08:06:20;;;;;;;;;;;;;;;9.95;79.08;100265.66;8277606;28;19940;-77
2022/10/07 08:10:22;;;;;;;;;;;;;;;10.28;77.95;100265.22;8277457;28;19925;-75
2022/10/07 08:14:23;;;;;;;;;;;;;;;10.53;77.07;100257.66;8296726;28;20015;-77
2022/10/07 08:18:25;;;;;;;;;;;;;;;10.83;76.24;100259.69;8296145;28;19924;-76
2022/10/07 08:22:27;;;;;;;;;;;;;;;11.15;75.42;100258.22;8283661;28;20657;-77
2022/10/07 08:26:29;;;;;;;;;;;;;;;11.41;74.63;100245.38;8271172;28;19926;-77
2022/10/07 08:30:31;;;;;;;;;;;;;;;11.54;73.47;100245.44;8250286;28;19933;-77
2022/10/07 08:34:35;;;;;;;;;;;;;;;11.72;73.77;100249.00;8302600;28;19937;-77
2022/10/07 08:38:37;;;;;;;;;;;;;;;11.83;73.62;100250.81;8291193;28;19949;-77
2022/10/07 08:42:40;;;;;;;;;;;;;;;12.10;73.32;100238.78;8296578;28;20341;-77
2022/10/07 08:46:54;;;;;;;;;;;;;;;12.31;73.01;100234.47;8301133;28;19984;-77
2022/10/07 08:51:02;;;;;;;;;;;;;;;12.56;71.52;100220.63;8274983;28;20326;-77
2022/10/07 08:55:27;;;;;;;;;;;;;;;12.80;71.33;100217.16;8295223;28;19932;-77
2022/10/07 08:59:30;;;;;;;;;;;;;;;13.06;71.41;100209.31;8253870;28;19925;-77
2022/10/07 09:03:37;;;;;;;;;;;;;;;13.38;71.04;100211.03;8273589;28;19925;-75
2022/10/07 09:07:46;;;;;;;;;;;;;;;13.65;70.17;100204.88;8276078;28;19983;-76
2022/10/07 09:11:51;;;;;;;;;;;;;;;13.94;69.92;100199.50;8276246;28;19935;-76
2022/10/07 09:15:55;;;;;;;;;;;;;;;14.27;69.07;100201.06;8288531;28;19930;-76
2022/10/07 09:20:01;;;;;;;;;;;;;;;14.52;67.79;100192.19;8272516;28;19936;-76
2022/10/07 09:24:18;;;;;;;;;;;;;;;14.59;67.26;100193.91;8296893;28;19972;-77
2022/10/07 09:28:24;;;;;;;;;;;;;;;14.66;66.72;100179.88;8292760;28;19925;-76
2022/10/07 09:32:26;;;;;;;;;;;;;;;14.75;65.80;100182.44;8282692;28;20263;-76
2022/10/07 09:36:27;;;;;;;;;;;;;;;14.77;64.97;100180.69;8286348;28;20321;-77
2022/10/07 09:45:20;;;;;;;;;;;;;;;15.06;65.93;100166.44;8286162;28;20301;-76
2022/10/07 09:49:27;;;;;;;;;;;;;;;15.25;64.88;100160.13;8284867;28;19925;-77
2022/10/07 09:53:28;;;;;;;;;;;;;;;15.44;62.99;100155.59;8283106;28;19948;-76
2022/10/07 09:57:34;;;;;;;;;;;;;;;15.69;62.00;100157.03;8283356;28;20708;-76
2022/10/07 10:01:37;;;;;;;;;;;;;;;15.89;62.04;100143.66;8280835;28;20242;-76
2022/10/07 10:05:56;;;;;;;;;;;;;;;16.19;62.02;100144.13;8247194;28;19925;-76
2022/10/07 10:10:05;;;;;;;;;;;;;;;16.42;61.74;100135.88;8265050;28;19929;-76
2022/10/07 10:14:25;;;;;;;;;;;;;;;16.59;61.52;100128.59;8282712;28;19936;-76
2022/10/07 10:18:26;;;;;;;;;;;;;;;16.65;60.09;100125.00;8286636;28;19925;-77
2022/10/07 10:22:30;;;;;;;;;;;;;;;16.67;60.27;100113.63;8286287;28;19945;-77
2022/10/07 10:26:32;;;;;;;;;;;;;;;16.88;60.96;100123.75;8297638;28;19968;-77
2022/10/07 10:30:39;;;;;;;;;;;;;;;17.07;60.35;100115.53;8288757;28;19932;-77
2022/10/07 10:35:00;;;;;;;;;;;;;;;17.15;60.05;100101.34;8264161;28;19925;-77
2022/10/07 10:39:03;;;;;;;;;;;;;;;17.17;59.76;100101.31;8253495;28;19925;-77
2022/10/07 10:43:11;;;;;;;;;;;;;;;17.25;59.35;100099.44;8246433;28;19925;-76
2022/10/07 10:47:24;;;;;;;;;;;;;;;17.50;58.97;100090.13;8257274;28;20439;-76
2022/10/07 10:51:30;;;;;;;;;;;;;;;17.73;57.45;100087.03;8250950;28;19984;-76
2022/10/07 10:55:36;;;;;;;;;;;;;;;17.84;56.94;100078.91;8251689;28;19933;-77
2022/10/07 10:59:38;;;;;;;;;;;;;;;17.82;55.29;100078.09;8255032;28;20025;-76
2022/10/07 11:03:54;;;;;;;;;;;;;;;17.98;56.33;100071.59;8236839;28;20013;-76
2022/10/07 11:07:56;;;;;;;;;;;;;;;18.03;56.44;100059.19;8249079;28;19961;-77
2022/10/07 11:12:03;;;;;;;;;;;;;;;18.15;55.75;100057.19;8252326;28;19925;-77
2022/10/07 11:16:05;;;;;;;;;;;;;;;18.20;55.69;100039.50;8230021;28;20535;-76
2022/10/07 11:20:12;;;;;;;;;;;;;;;18.32;56.08;100041.84;8231731;28;19926;-76
2022/10/07 11:24:17;;;;;;;;;;;;;;;18.37;56.14;100032.06;8250329;28;19932;-76
2022/10/07 11:28:20;;;;;;;;;;;;;;;18.10;54.69;100028.34;8255228;28;19930;-76
2022/10/07 11:32:42;;;;;;;;;;;;;;;18.13;55.58;100025.63;8250941;28;19964;-77
2022/10/07 11:36:51;;;;;;;;;;;;;;;18.15;55.12;100012.50;8221979;28;20461;-76
2022/10/07 11:40:56;;;;;;;;;;;;;;;18.20;56.46;100011.47;8262286;28;20709;-77
2022/10/07 11:45:01;;;;;;;;;;;;;;;18.35;56.92;100007.56;8262311;28;19929;-77
2022/10/07 11:49:15;;;;;;;;;;;;;;;18.39;56.59;99998.69;8263512;28;20559;-77
2022/10/07 11:53:19;;;;;;;;;;;;;;;18.45;56.48;99995.91;8278130;28;19956;-77
2022/10/07 11:57:23;;;;;;;;;;;;;;;18.34;55.57;99983.06;8255061;28;19925;-76
2022/10/07 12:01:25;;;;;;;;;;;;;;;18.52;56.71;99976.44;8266246;28;19929;-77
2022/10/07 12:05:32;;;;;;;;;;;;;;;18.57;56.66;99965.78;8262539;28;19925;-77
2022/10/07 12:09:51;;;;;;;;;;;;;;;18.67;56.27;99962.00;8237179;28;19978;-77
2022/10/07 12:13:52;;;;;;;;;;;;;;;18.76;55.88;99959.13;8265590;28;19926;-76
2022/10/07 12:18:03;;;;;;;;;;;;;;;18.78;54.94;99946.78;8250702;28;19922;-77
2022/10/07 12:22:11;;;;;;;;;;;;;;;18.95;54.84;99941.88;8251306;28;19928;-74
2022/10/07 12:26:25;;;;;;;;;;;;;;;18.98;53.18;99927.78;8254540;28;19991;-75
2022/10/07 12:30:38;;;;;;;;;;;;;;;19.01;52.82;99919.78;8254817;28;20355;-75
2022/10/07 12:34:42;;;;;;;;;;;;;;;18.89;53.21;99917.53;8265944;28;20014;-74
2022/10/07 12:38:44;;;;;;;;;;;;;;;18.87;53.88;99917.59;8295669;28;19936;-76
2022/10/07 12:43:12;;;;;;;;;;;;;;;18.78;53.67;99916.97;8286107;28;19925;-76
2022/10/07 12:47:32;;;;;;;;;;;;;;;18.79;54.50;99898.50;8291832;28;19978;-76
2022/10/07 12:51:37;;;;;;;;;;;;;;;18.87;54.04;99887.78;8301201;28;20024;-77
2022/10/07 12:55:45;;;;;;;;;;;;;;;18.87;54.45;99880.75;8306928;28;19929;-77
2022/10/07 12:59:55;;;;;;;;;;;;;;;18.96;55.59;99874.31;8296260;28;20362;-74
2022/10/07 13:04:15;;;;;;;;;;;;;;;18.97;55.15;99882.16;8294099;28;19925;-77
2022/10/07 13:08:52;;;;;;;;;;;;;;;18.99;55.68;99871.59;8285191;28;19979;-77
2022/10/07 13:13:12;;;;;;;;;;;;;;;18.93;55.37;99862.13;8206985;28;19925;-77
2022/10/07 13:17:14;;;;;;;;;;;;;;;18.97;55.62;99857.63;8280351;28;20020;-77
2022/10/07 13:21:41;;;;;;;;;;;;;;;18.98;55.29;99854.06;8277249;28;19939;-77
2022/10/07 13:25:48;;;;;;;;;;;;;;;19.03;54.57;99839.03;8247541;28;19932;-77
2022/10/07 13:29:49;;;;;;;;;;;;;;;18.97;53.87;99832.16;8276463;28;20413;-77
2022/10/07 13:33:51;;;;;;;;;;;;;;;18.91;55.38;99824.47;8287814;28;20007;-77
2022/10/07 13:37:53;;;;;;;;;;;;;;;18.84;54.74;99819.44;8261642;28;19925;-77
2022/10/07 13:41:58;;;;;;;;;;;;;;;18.94;55.38;99813.84;8278993;28;19991;-77
2022/10/07 13:46:00;;;;;;;;;;;;;;;18.92;55.12;99804.28;8266457;28;19929;-77
2022/10/07 13:50:02;;;;;;;;;;;;;;;18.87;54.94;99798.31;8292087;28;20675;-77
2022/10/07 13:54:06;;;;;;;;;;;;;;;18.73;54.46;99796.09;8264828;28;20023;-77
2022/10/07 13:58:08;;;;;;;;;;;;;;;18.79;55.60;99787.16;8277939;28;19929;-75
2022/10/07 14:02:11;;;;;;;;;;;;;;;18.87;56.33;99777.25;8254522;28;20389;-77
2022/10/07 14:06:32;;;;;;;;;;;;;;;18.87;56.08;99767.59;8279310;28;20056;-77
2022/10/07 14:10:34;;;;;;;;;;;;;;;18.84;56.27;99759.78;8273206;28;20453;-77
2022/10/07 14:14:36;;;;;;;;;;;;;;;18.80;56.08;99762.56;8279644;28;20371;-77
2022/10/07 14:18:41;;;;;;;;;;;;;;;18.75;56.33;99756.59;8244904;28;19983;-77
2022/10/07 14:22:46;;;;;;;;;;;;;;;18.85;56.79;99755.38;8265421;28;20084;-77
2022/10/07 14:26:48;;;;;;;;;;;;;;;18.95;56.23;99751.53;8253075;28;20612;-77
2022/10/07 14:35:28;;;;;;;;;;;;;;;19.05;56.45;99739.81;8266646;28;19929;-77
2022/10/07 14:39:36;;;;;;;;;;;;;;;19.06;56.22;99738.91;8262207;28;19937;-77
2022/10/07 14:43:39;;;;;;;;;;;;;;;18.86;56.78;99736.94;8264592;28;20323;-77
2022/10/07 14:47:43;;;;;;;;;;;;;;;18.70;57.06;99717.28;8212975;28;19941;-77
2022/10/07 14:51:45;;;;;;;;;;;;;;;18.65;58.62;99706.88;8243824;28;19925;-77
2022/10/07 14:55:47;;;;;;;;;;;;;;;18.56;60.83;99725.56;8257313;28;20554;-76
2022/10/07 14:59:48;;;;;;;;;;;;;;;18.56;60.60;99707.16;8260253;28;19926;-77
2022/10/07 15:03:50;;;;;;;;;;;;;;;18.69;60.66;99713.78;8255373;28;19929;-76
2022/10/07 15:07:52;;;;;;;;;;;;;;;18.79;60.81;99713.47;8248266;28;20255;-76
2022/10/07 15:11:53;;;;;;;;;;;;;;;18.75;60.69;99704.84;8248104;28;20417;-76
2022/10/07 15:15:54;;;;;;;;;;;;;;;18.75;60.11;99704.84;8231226;28;19925;-76
2022/10/07 15:19:56;;;;;;;;;;;;;;;18.63;59.38;99697.34;8256535;28;19960;-76
2022/10/07 15:24:00;;;;;;;;;;;;;;;18.54;61.85;99692.34;8241772;28;19984;-77
2022/10/07 15:28:02;;;;;;;;;;;;;;;18.49;62.12;99686.34;8264596;28;19922;-75
2022/10/07 15:32:04;;;;;;;;;;;;;;;18.53;62.91;99688.00;8258784;28;19929;-76
2022/10/07 15:36:06;;;;;;;;;;;;;;;18.60;63.49;99677.22;8276146;28;20406;-77
2022/10/07 15:40:08;;;;;;;;;;;;;;;18.60;63.29;99676.38;8270266;28;19933;-76
2022/10/07 15:44:14;;;;;;;;;;;;;;;18.38;63.80;99670.94;8287210;28;19929;-76
2022/10/07 15:48:16;;;;;;;;;;;;;;;18.11;63.43;99672.63;8244077;28;19988;-76
2022/10/07 15:52:18;;;;;;;;;;;;;;;17.83;66.16;99671.75;8260211;28;19930;-76
2022/10/07 15:56:19;;;;;;;;;;;;;;;17.62;67.25;99670.59;8250646;28;19925;-75
2022/10/07 16:00:21;;;;;;;;;;;;;;;17.47;68.28;99672.75;8272550;28;19925;-76
2022/10/07 16:04:22;;;;;;;;;;;;;;;17.32;69.80;99673.16;8262780;28;19933;-77
2022/10/07 16:08:23;;;;;;;;;;;;;;;17.07;71.38;99674.72;8280159;28;19926;-76
2022/10/07 16:12:25;;;;;;;;;;;;;;;16.82;73.11;99682.34;8279672;28;19961;-78
2022/10/07 16:16:27;;;;;;;;;;;;;;;16.59;73.14;99670.63;8278131;28;19944;-78
2022/10/07 16:20:28;;;;;;;;;;;;;;;16.47;73.46;99676.16;8281476;28;19925;-79
2022/10/07 16:24:30;;;;;;;;;;;;;;;16.27;75.15;99673.16;8282433;28;19929;-79
2022/10/07 16:32:59;;;;;;;;;;;;;;;15.89;77.81;99674.88;8267478;28;19929;-78
2022/10/07 16:37:00;;;;;;;;;;;;;;;15.73;78.57;99667.38;8267070;28;19976;-78
2022/10/07 16:41:01;;;;;;;;;;;;;;;15.55;79.15;99664.19;8249228;28;19925;-79
2022/10/07 16:45:03;;;;;;;;;;;;;;;15.40;79.72;99682.81;8232667;28;19942;-78
2022/10/07 16:49:05;;;;;;;;;;;;;;;15.23;80.62;99679.66;8260299;28;19926;-78
2022/10/07 16:53:07;;;;;;;;;;;;;;;15.10;81.29;99674.69;8249473;28;19934;-78
2022/10/07 16:57:08;;;;;;;;;;;;;;;14.94;81.77;99662.75;8262955;28;19937;-78
2022/10/07 17:01:11;;;;;;;;;;;;;;;14.74;82.55;99675.31;8245793;28;19933;-78
2022/10/07 17:05:12;;;;;;;;;;;;;;;14.57;83.42;99670.38;8249411;28;20254;-78
2022/10/07 17:09:14;;;;;;;;;;;;;;;14.44;83.93;99672.31;8243659;28;19929;-78
2022/10/07 17:13:19;;;;;;;;;;;;;;;14.32;84.20;99677.66;8264277;28;19925;-77
2022/10/07 17:17:20;;;;;;;;;;;;;;;14.19;84.54;99668.31;8261600;28;20766;-75
2022/10/07 17:21:21;;;;;;;;;;;;;;;14.06;85.20;99667.63;8261957;28;19926;-76
2022/10/07 17:25:23;;;;;;;;;;;;;;;13.95;85.41;99671.25;8246307;28;19983;-76
2022/10/07 17:29:24;;;;;;;;;;;;;;;13.85;86.04;99679.22;8235948;28;19956;-76
2022/10/07 17:33:27;;;;;;;;;;;;;;;13.74;86.18;99675.88;8235456;28;19929;-75
2022/10/07 17:37:28;;;;;;;;;;;;;;;13.62;86.34;99676.00;8232391;28;20012;-75
2022/10/07 17:41:31;;;;;;;;;;;;;;;13.51;87.00;99676.16;8232261;28;19926;-76
2022/10/07 17:45:35;;;;;;;;;;;;;;;13.43;87.41;99672.75;8249729;28;20012;-75
2022/10/07 17:49:37;;;;;;;;;;;;;;;13.34;87.81;99677.22;8265362;28;19925;-76
2022/10/07 17:53:41;;;;;;;;;;;;;;;13.23;87.98;99678.19;8261053;28;19925;-76
2022/10/07 17:57:43;;;;;;;;;;;;;;;13.17;88.38;99679.97;8260878;28;19929;-75
2022/10/07 18:01:44;;;;;;;;;;;;;;;13.10;88.49;99678.28;8253831;28;19936;-74
2022/10/07 18:05:50;;;;;;;;;;;;;;;13.04;88.84;99675.75;8239970;28;19925;-75
2022/10/07 18:09:51;;;;;;;;;;;;;;;12.95;89.68;99679.34;8252649;28;19932;-75
2022/10/07 18:18:14;;;;;;;;;;;;;;;12.78;89.85;99692.50;8234925;28;20017;-75
2022/10/07 18:22:15;;;;;;;;;;;;;;;12.73;90.31;99680.38;8255767;28;19933;-74
2022/10/07 18:26:17;;;;;;;;;;;;;;;12.72;91.15;99682.13;8264481;28;19926;-74
2022/10/07 18:30:19;;;;;;;;;;;;;;;12.68;90.80;99670.00;8254862;28;20408;-75
2022/10/07 18:34:21;;;;;;;;;;;;;;;12.64;91.34;99677.00;8241818;28;20670;-74
2022/10/07 18:38:22;;;;;;;;;;;;;;;12.54;90.78;99672.72;8264563;28;19926;-74
2022/10/07 18:42:24;;;;;;;;;;;;;;;12.50;90.77;99677.97;8269745;28;20601;-75
2022/10/07 18:46:26;;;;;;;;;;;;;;;12.44;90.90;99678.03;8266053;28;19924;-75
2022/10/07 18:50:27;;;;;;;;;;;;;;;12.40;91.13;99675.44;8266944;28;20011;-74
2022/10/07 18:54:33;;;;;;;;;;;;;;;12.39;92.08;99673.72;8271074;28;19925;-75
2022/10/07 18:58:36;;;;;;;;;;;;;;;12.39;92.47;99673.72;8277460;28;20394;-74
2022/10/07 19:02:38;;;;;;;;;;;;;;;12.40;93.39;99675.44;8286319;28;19925;-74
2022/10/07 19:06:45;;;;;;;;;;;;;;;12.46;93.59;99676.28;8263870;28;19933;-74
2022/10/07 19:10:46;;;;;;;;;;;;;;;12.53;94.45;99668.38;8293226;28;19932;-74
2022/10/07 19:14:48;;;;;;;;;;;;;;;12.58;94.28;99666.63;8287078;28;20484;-74
2022/10/07 19:18:51;;;;;;;;;;;;;;;12.61;94.65;99664.00;8254487;28;20385;-75
2022/10/07 19:22:52;;;;;;;;;;;;;;;12.58;93.40;99663.16;8265143;28;20028;-75
2022/10/07 19:26:55;;;;;;;;;;;;;;;12.50;94.28;99660.59;8266709;28;19947;-76
2022/10/07 19:30:57;;;;;;;;;;;;;;;12.47;94.25;99652.81;8278991;28;21060;-76
2022/10/07 19:34:59;;;;;;;;;;;;;;;12.47;94.12;99652.81;8287329;28;19957;-76
2022/10/07 19:39:01;;;;;;;;;;;;;;;12.45;94.21;99659.78;8280788;28;19978;-76
2022/10/07 19:43:04;;;;;;;;;;;;;;;12.43;93.68;99650.25;8282493;28;19933;-76
2022/10/07 19:47:05;;;;;;;;;;;;;;;12.39;94.14;99645.06;8242418;28;19925;-76
2022/10/07 19:51:12;;;;;;;;;;;;;;;12.40;94.32;99643.34;8264662;28;20412;-76
2022/10/07 19:55:13;;;;;;;;;;;;;;;12.40;94.66;99633.78;8276994;28;19936;-76
2022/10/07 19:59:15;;;;;;;;;;;;;;;12.40;94.68;99632.91;8281650;28;19976;-76
2022/10/07 20:03:16;;;;;;;;;;;;;;;12.36;94.64;99639.88;8266062;28;19925;-76
2022/10/07 20:07:17;;;;;;;;;;;;;;;12.34;94.34;99638.16;8270513;28;20306;-76
2022/10/07 20:11:19;;;;;;;;;;;;;;;12.29;93.96;99634.72;8279672;28;19987;-76
2022/10/07 20:15:22;;;;;;;;;;;;;;;12.25;94.05;99640.84;8288482;28;19933;-77
2022/10/07 20:19:24;;;;;;;;;;;;;;;12.18;93.68;99634.78;8292835;28;19926;-77
2022/10/07 20:23:25;;;;;;;;;;;;;;;12.15;94.42;99644.38;8299160;28;19988;-77
2022/10/07 20:27:27;;;;;;;;;;;;;;;12.13;94.45;99640.91;8278187;28;20387;-77
2022/10/07 20:31:29;;;;;;;;;;;;;;;12.13;94.92;99638.31;8272748;28;19929;-77
2022/10/07 20:35:32;;;;;;;;;;;;;;;12.14;95.01;99638.31;8274386;28;19936;-76
2022/10/07 20:43:54;;;;;;;;;;;;;;;12.12;95.33;99624.44;8281225;28;20270;-76
2022/10/07 20:47:58;;;;;;;;;;;;;;;12.10;95.69;99624.44;8276996;28;19986;-76
2022/10/07 20:52:01;;;;;;;;;;;;;;;12.06;95.12;99627.09;8291605;28;19987;-76
2022/10/07 20:56:02;;;;;;;;;;;;;;;11.98;95.32;99626.25;8298399;28;19929;-75
2022/10/07 21:00:08;;;;;;;;;;;;;;;11.95;95.95;99627.16;8298903;28;20492;-76
2022/10/07 21:04:10;;;;;;;;;;;;;;;11.97;96.04;99625.41;8294021;28;19926;-76
2022/10/07 21:08:13;;;;;;;;;;;;;;;12.00;96.52;99627.97;8292230;28;19930;-76
2022/10/07 21:12:15;;;;;;;;;;;;;;;12.06;96.61;99621.88;8293704;28;19924;-76
2022/10/07 21:16:19;;;;;;;;;;;;;;;12.10;96.83;99615.78;8262409;28;19935;-76
2022/10/07 21:20:21;;;;;;;;;;;;;;;12.13;97.31;99607.06;8269644;28;19940;-76
2022/10/07 21:24:23;;;;;;;;;;;;;;;12.19;97.32;99605.28;8294549;28;20060;-76
2022/10/07 21:28:24;;;;;;;;;;;;;;;12.18;97.25;99600.94;8255378;28;19925;-77
2022/10/07 21:32:26;;;;;;;;;;;;;;;12.18;97.10;99602.69;8278717;28;19925;-76